createdAt,value
2018-06-10T00:02:25.881Z,24.20
2018-06-10T00:04:53.880Z,24.10
2018-06-10T00:07:21.878Z,24.10
2018-06-10T00:09:49.899Z,24.20
2018-06-10T00:12:17.876Z,24.20
2018-06-10T00:14:45.859Z,24.20
2018-06-10T00:17:13.878Z,24.20
2018-06-10T00:19:41.874Z,24.10
2018-06-10T00:22:09.908Z,24.00
2018-06-10T00:24:37.910Z,23.90
2018-06-10T00:27:05.911Z,23.80
2018-06-10T00:29:34.000Z,23.80
2018-06-10T00:32:02.036Z,23.80
2018-06-10T00:34:30.055Z,23.80
2018-06-10T00:36:58.066Z,23.80
2018-06-10T00:39:26.107Z,23.80
2018-06-10T00:41:54.114Z,23.80
2018-06-10T00:44:22.146Z,23.90
2018-06-10T00:46:50.154Z,23.80
2018-06-10T00:49:18.202Z,23.80
2018-06-10T00:51:56.976Z,23.80
2018-06-10T00:54:24.963Z,23.80
2018-06-10T00:56:53.434Z,23.80
2018-06-10T00:59:21.630Z,23.60
2018-06-10T01:01:49.657Z,23.50
2018-06-10T01:04:17.684Z,23.50
2018-06-10T01:06:45.690Z,23.50
2018-06-10T01:09:13.688Z,23.50
2018-06-10T01:11:41.682Z,23.60
2018-06-10T01:14:09.682Z,23.50
2018-06-10T01:16:37.716Z,23.50
2018-06-10T01:19:05.722Z,23.40
2018-06-10T01:21:33.714Z,23.40
2018-06-10T01:24:01.725Z,23.30
2018-06-10T01:26:35.159Z,23.30
2018-06-10T01:29:03.148Z,23.30
2018-06-10T01:31:31.184Z,23.30
2018-06-10T01:33:59.300Z,23.30
2018-06-10T01:36:27.375Z,23.30
2018-06-10T01:38:55.430Z,23.30
2018-06-10T01:41:23.434Z,23.30
2018-06-10T01:43:51.475Z,23.30
2018-06-10T01:46:19.471Z,23.30
2018-06-10T01:51:15.366Z,23.10
2018-06-10T01:53:43.364Z,23.00
2018-06-10T01:56:11.374Z,23.00
2018-06-10T01:58:39.428Z,22.90
2018-06-10T02:01:07.452Z,22.90
2018-06-10T02:03:35.473Z,22.90
2018-06-10T02:06:03.600Z,22.80
2018-06-10T02:08:31.667Z,22.80
2018-06-10T02:10:59.699Z,22.80
2018-06-10T02:13:27.707Z,22.80
2018-06-10T02:15:55.877Z,22.80
2018-06-10T02:18:23.907Z,22.70
2018-06-10T02:20:51.894Z,22.70
2018-06-10T02:23:19.945Z,22.70
2018-06-10T02:25:47.957Z,22.70
2018-06-10T02:28:15.956Z,22.70
2018-06-10T02:30:43.999Z,22.70
2018-06-10T02:33:12.007Z,22.80
2018-06-10T02:35:40.015Z,22.80
2018-06-10T02:38:08.098Z,22.70
2018-06-10T02:40:36.112Z,22.80
2018-06-10T02:43:04.108Z,22.70
2018-06-10T02:45:32.106Z,22.70
2018-06-10T02:48:00.089Z,22.60
2018-06-10T02:50:28.077Z,22.60
2018-06-10T02:52:56.062Z,22.50
2018-06-10T02:55:24.065Z,22.40
2018-06-10T02:57:52.163Z,22.30
2018-06-10T03:00:20.244Z,22.20
2018-06-10T03:02:48.284Z,22.20
2018-06-10T03:05:16.379Z,22.30
2018-06-10T03:07:44.438Z,22.30
2018-06-10T03:10:12.429Z,22.40
2018-06-10T03:12:40.500Z,22.30
2018-06-10T03:15:08.491Z,22.30
2018-06-10T03:20:04.418Z,22.20
2018-06-10T03:25:00.242Z,22.20
2018-06-10T03:27:28.241Z,22.30
2018-06-10T03:29:56.263Z,22.30
2018-06-10T03:32:24.555Z,22.40
2018-06-10T03:34:52.580Z,22.40
2018-06-10T03:37:20.563Z,22.50
2018-06-10T03:39:48.635Z,22.50
2018-06-10T03:42:16.674Z,22.50
2018-06-10T03:44:44.717Z,22.40
2018-06-10T03:47:12.763Z,22.40
2018-06-10T03:49:40.776Z,22.40
2018-06-10T03:52:08.778Z,22.50
2018-06-10T03:54:36.861Z,22.50
2018-06-10T03:57:04.875Z,22.60
2018-06-10T03:59:32.915Z,22.60
2018-06-10T04:02:01.078Z,22.60
2018-06-10T04:04:29.341Z,22.50
2018-06-10T04:06:57.375Z,22.50
2018-06-10T04:09:25.359Z,22.50
2018-06-10T04:11:53.368Z,22.60
2018-06-10T04:14:21.433Z,22.70
2018-06-10T04:16:49.493Z,22.80
2018-06-10T04:19:17.493Z,22.80
2018-06-10T04:21:45.495Z,22.90
2018-06-10T04:24:13.504Z,22.90
2018-06-10T04:26:41.550Z,23.00
2018-06-10T04:29:09.548Z,23.10
2018-06-10T04:31:37.625Z,23.10
2018-06-10T04:34:05.631Z,23.20
2018-06-10T04:36:33.682Z,23.20
2018-06-10T04:39:01.685Z,23.30
2018-06-10T04:41:29.698Z,23.30
2018-06-10T04:43:57.722Z,23.30
2018-06-10T04:46:25.710Z,23.30
2018-06-10T04:48:53.714Z,23.30
2018-06-10T04:51:21.752Z,23.40
2018-06-10T04:53:49.756Z,23.50
2018-06-10T04:56:17.756Z,23.60
2018-06-10T04:58:45.786Z,23.60
2018-06-10T05:01:13.843Z,23.60
2018-06-10T05:03:41.926Z,23.70
2018-06-10T05:06:10.004Z,23.80
2018-06-10T05:08:38.017Z,23.90
2018-06-10T05:11:06.142Z,24.00
2018-06-10T05:13:34.215Z,24.10
2018-06-10T05:16:02.387Z,24.20
2018-06-10T05:18:30.382Z,24.30
2018-06-10T05:20:58.427Z,24.40
2018-06-10T05:23:26.449Z,24.40
2018-06-10T05:25:54.463Z,24.50
2018-06-10T05:28:22.445Z,24.60
2018-06-10T05:30:50.445Z,24.60
2018-06-10T05:33:18.454Z,24.60
2018-06-10T05:35:46.458Z,24.70
2018-06-10T05:38:14.430Z,24.60
2018-06-10T05:43:10.259Z,24.70
2018-06-10T05:45:38.374Z,24.80
2018-06-10T05:48:06.622Z,24.80
2018-06-10T05:50:34.630Z,24.80
2018-06-10T05:53:02.975Z,24.80
2018-06-10T05:55:31.393Z,24.60
2018-06-10T05:57:59.758Z,24.60
2018-06-10T06:00:27.786Z,24.50
2018-06-10T06:02:55.830Z,24.40
2018-06-10T06:05:23.843Z,24.20
2018-06-10T06:07:51.838Z,24.20
2018-06-10T06:10:19.842Z,24.30
2018-06-10T06:12:47.847Z,24.30
2018-06-10T06:15:15.858Z,24.40
2018-06-10T06:17:43.949Z,24.60
2018-06-10T06:20:11.937Z,24.70
2018-06-10T06:22:39.967Z,24.90
2018-06-10T06:25:07.974Z,24.90
2018-06-10T06:27:36.087Z,25.00
2018-06-10T06:30:04.083Z,25.10
2018-06-10T06:32:32.283Z,25.30
2018-06-10T06:35:00.269Z,25.50
2018-06-10T06:37:28.285Z,25.60
2018-06-10T06:39:56.288Z,25.80
2018-06-10T06:42:24.330Z,25.90
2018-06-10T06:44:52.330Z,26.00
2018-06-10T06:47:20.353Z,25.90
2018-06-10T06:49:48.350Z,25.70
2018-06-10T06:52:16.348Z,25.70
2018-06-10T06:54:44.347Z,25.70
2018-06-10T06:57:12.434Z,25.80
2018-06-10T06:59:40.438Z,25.90
2018-06-10T07:02:08.511Z,26.00
2018-06-10T07:04:36.522Z,26.20
2018-06-10T07:07:04.531Z,26.50
2018-06-10T07:09:32.582Z,26.60
2018-06-10T07:12:00.766Z,26.40
2018-06-10T07:14:28.770Z,26.20
2018-06-10T07:16:56.868Z,26.10
2018-06-10T07:19:24.883Z,26.20
2018-06-10T07:21:52.974Z,26.20
2018-06-10T07:24:20.988Z,26.10
2018-06-10T07:26:49.012Z,26.20
2018-06-10T07:29:17.038Z,26.30
2018-06-10T07:31:45.103Z,26.40
2018-06-10T07:34:13.114Z,26.60
2018-06-10T07:36:41.115Z,26.70
2018-06-10T07:39:09.112Z,26.80
2018-06-10T07:41:37.190Z,26.90
2018-06-10T07:44:05.207Z,26.90
2018-06-10T07:46:33.243Z,27.00
2018-06-10T07:49:01.256Z,27.10
2018-06-10T07:51:29.273Z,26.80
2018-06-10T07:53:57.334Z,26.70
2018-06-10T07:56:32.175Z,26.70
2018-06-10T07:59:00.175Z,26.80
2018-06-10T08:01:28.197Z,27.10
2018-06-10T08:03:56.214Z,27.30
2018-06-10T08:06:24.227Z,27.60
2018-06-10T08:08:52.218Z,27.80
2018-06-10T08:11:20.227Z,28.00
2018-06-10T08:13:48.275Z,28.10
2018-06-10T08:16:16.531Z,28.10
2018-06-10T08:18:44.607Z,28.20
2018-06-10T08:21:12.583Z,28.40
2018-06-10T08:23:40.588Z,28.40
2018-06-10T08:26:08.579Z,28.60
2018-06-10T08:28:36.626Z,28.80
2018-06-10T08:31:04.647Z,28.80
2018-06-10T08:33:32.817Z,28.80
2018-06-10T08:36:00.830Z,28.80
2018-06-10T08:38:28.858Z,28.70
2018-06-10T08:40:56.850Z,28.70
2018-06-10T08:43:24.930Z,28.50
2018-06-10T08:45:52.939Z,28.50
2018-06-10T08:48:20.935Z,28.60
2018-06-10T08:50:49.055Z,28.80
2018-06-10T08:53:17.121Z,28.90
2018-06-10T08:55:45.200Z,29.10
2018-06-10T08:58:13.194Z,29.40
2018-06-10T09:00:41.291Z,29.50
2018-06-10T09:03:09.340Z,29.70
2018-06-10T09:05:37.344Z,29.80
2018-06-10T09:08:05.403Z,29.90
2018-06-10T09:10:33.388Z,30.10
2018-06-10T09:13:01.500Z,30.30
2018-06-10T09:15:29.509Z,30.50
2018-06-10T09:17:57.511Z,30.70
2018-06-10T09:20:25.681Z,30.70
2018-06-10T09:22:53.684Z,30.80
2018-06-10T09:25:21.720Z,31.00
2018-06-10T09:27:49.743Z,31.20
2018-06-10T09:30:17.836Z,31.30
2018-06-10T09:32:45.841Z,31.40
2018-06-10T09:35:13.850Z,31.40
2018-06-10T09:37:41.892Z,31.40
2018-06-10T09:40:09.895Z,31.30
2018-06-10T09:42:37.971Z,31.50
2018-06-10T09:45:06.949Z,31.90
2018-06-10T09:47:35.572Z,32.00
2018-06-10T09:50:03.626Z,31.90
2018-06-10T09:52:31.631Z,31.80
2018-06-10T09:54:59.649Z,31.50
2018-06-10T09:57:27.686Z,31.30
2018-06-10T09:59:55.756Z,30.80
2018-06-10T10:02:23.790Z,30.20
2018-06-10T10:04:51.890Z,29.90
2018-06-10T10:07:19.887Z,29.80
2018-06-10T10:09:47.916Z,29.90
2018-06-10T10:12:15.900Z,30.20
2018-06-10T10:14:44.012Z,30.50
2018-06-10T10:17:12.004Z,30.90
2018-06-10T10:19:40.005Z,31.10
2018-06-10T10:22:07.985Z,31.30
2018-06-10T10:24:36.009Z,31.40
2018-06-10T10:27:04.020Z,31.30
2018-06-10T10:29:32.053Z,31.40
2018-06-10T10:32:00.140Z,31.50
2018-06-10T10:34:28.135Z,31.50
2018-06-10T10:36:56.283Z,31.30
2018-06-10T10:39:24.266Z,31.00
2018-06-10T10:41:52.286Z,30.90
2018-06-10T10:44:20.365Z,31.00
2018-06-10T10:46:48.398Z,31.10
2018-06-10T10:49:16.460Z,31.40
2018-06-10T10:51:44.465Z,31.60
2018-06-10T10:54:12.546Z,31.80
2018-06-10T10:56:40.574Z,32.00
2018-06-10T10:59:08.626Z,32.10
2018-06-10T11:01:36.665Z,32.50
2018-06-10T11:04:04.666Z,32.60
2018-06-10T11:06:32.704Z,32.80
2018-06-10T11:09:00.713Z,33.20
2018-06-10T11:11:28.736Z,33.30
2018-06-10T11:13:56.738Z,33.30
2018-06-10T11:16:24.821Z,33.50
2018-06-10T11:18:52.810Z,33.50
2018-06-10T11:21:20.870Z,33.80
2018-06-10T11:23:48.910Z,34.10
2018-06-10T11:26:16.904Z,34.10
2018-06-10T11:28:44.921Z,34.20
2018-06-10T11:31:12.942Z,34.20
2018-06-10T11:33:40.946Z,34.40
2018-06-10T11:36:08.979Z,34.70
2018-06-10T11:38:36.984Z,34.90
2018-06-10T11:41:05.011Z,34.90
2018-06-10T11:43:33.018Z,34.90
2018-06-10T11:46:01.080Z,34.40
2018-06-10T11:53:25.019Z,32.20
2018-06-10T11:55:53.035Z,31.40
2018-06-10T11:58:21.050Z,31.00
2018-06-10T12:00:49.227Z,30.60
2018-06-10T12:03:17.248Z,30.20
2018-06-10T12:05:45.283Z,29.80
2018-06-10T12:08:13.295Z,29.50
2018-06-10T12:10:41.383Z,29.30
2018-06-10T12:13:10.188Z,29.20
2018-06-10T12:15:38.252Z,29.00
2018-06-10T12:18:06.254Z,28.90
2018-06-10T12:20:34.275Z,28.90
2018-06-10T12:23:02.280Z,28.80
2018-06-10T12:25:30.308Z,28.60
2018-06-10T12:27:58.677Z,28.70
2018-06-10T12:30:26.748Z,28.80
2018-06-10T12:32:54.767Z,29.00
2018-06-10T12:35:22.772Z,29.00
2018-06-10T12:37:50.800Z,28.90
2018-06-10T12:40:18.790Z,28.70
2018-06-10T12:42:46.848Z,28.80
2018-06-10T12:45:14.871Z,28.90
2018-06-10T12:47:42.934Z,28.60
2018-06-10T12:50:10.979Z,28.60
2018-06-10T12:52:39.024Z,28.70
2018-06-10T12:55:07.002Z,28.90
2018-06-10T12:57:35.048Z,29.00
2018-06-10T13:00:03.039Z,29.00
2018-06-10T13:02:31.167Z,28.90
2018-06-10T13:04:59.230Z,28.80
2018-06-10T13:07:27.248Z,28.80
2018-06-10T13:09:55.261Z,28.90
2018-06-10T13:12:23.292Z,28.90
2018-06-10T13:14:51.320Z,28.80
2018-06-10T13:17:19.335Z,28.70
2018-06-10T13:19:47.359Z,28.60
2018-06-10T13:22:15.366Z,28.50
2018-06-10T13:24:43.382Z,28.50
2018-06-10T13:27:11.412Z,28.40
2018-06-10T13:29:39.522Z,28.30
2018-06-10T13:32:07.550Z,28.20
2018-06-10T13:34:35.579Z,28.20
2018-06-10T13:37:03.586Z,28.30
2018-06-10T13:39:31.616Z,28.30
2018-06-10T13:41:59.610Z,28.30
2018-06-10T13:44:27.608Z,28.40
2018-06-10T13:46:55.614Z,28.60
2018-06-10T13:49:23.683Z,28.70
2018-06-10T13:51:51.739Z,28.80
2018-06-10T13:54:19.803Z,28.70
2018-06-10T13:56:47.864Z,28.40
2018-06-10T13:59:16.071Z,28.00
2018-06-10T14:01:44.098Z,27.80
2018-06-10T14:04:12.154Z,27.80
2018-06-10T14:06:40.184Z,27.80
2018-06-10T14:09:08.225Z,27.90
2018-06-10T14:11:36.272Z,27.80
2018-06-10T14:14:04.833Z,27.80
2018-06-10T14:16:32.867Z,27.90
2018-06-10T14:19:00.983Z,27.90
2018-06-10T14:21:29.061Z,27.90
2018-06-10T14:23:57.049Z,27.90
2018-06-10T14:26:25.078Z,28.00
2018-06-10T14:28:53.273Z,28.10
2018-06-10T14:31:21.375Z,28.00
2018-06-10T14:33:49.457Z,27.90
2018-06-10T14:36:17.454Z,27.70
2018-06-10T14:38:45.495Z,27.40
2018-06-10T14:41:13.525Z,27.20
2018-06-10T14:43:41.510Z,27.00
2018-06-10T14:46:09.531Z,26.80
2018-06-10T14:48:37.539Z,26.60
2018-06-10T14:51:05.564Z,26.50
2018-06-10T14:53:33.611Z,26.40
2018-06-10T14:56:01.608Z,26.10
2018-06-10T14:58:29.647Z,26.00
2018-06-10T15:00:57.644Z,26.00
2018-06-10T15:03:25.723Z,25.70
2018-06-10T15:05:53.787Z,25.50
2018-06-10T15:08:21.891Z,25.10
2018-06-10T15:10:49.896Z,24.70
2018-06-10T15:13:17.900Z,24.60
2018-06-10T15:15:45.899Z,24.60
2018-06-10T15:18:13.893Z,24.70
2018-06-10T15:20:41.884Z,24.80
2018-06-10T15:23:09.954Z,24.80
2018-06-10T15:25:37.938Z,24.80
2018-06-10T15:28:05.958Z,24.80
2018-06-10T15:30:34.052Z,24.80
2018-06-10T15:33:02.032Z,24.70
2018-06-10T15:35:30.020Z,24.80
2018-06-10T15:37:58.079Z,25.00
2018-06-10T15:40:26.077Z,25.10
2018-06-10T15:42:54.067Z,25.10
2018-06-10T15:45:22.116Z,25.30
2018-06-10T15:47:50.124Z,25.30
2018-06-10T15:50:18.183Z,25.60
2018-06-10T15:52:46.195Z,25.70
2018-06-10T15:55:14.192Z,25.80
2018-06-10T15:57:42.217Z,25.60
2018-06-10T16:00:10.229Z,25.60
2018-06-10T16:05:06.143Z,26.20
2018-06-10T16:07:34.130Z,26.30
2018-06-10T16:10:02.115Z,26.30
2018-06-10T16:12:30.123Z,26.30
2018-06-10T16:14:58.119Z,26.10
2018-06-10T16:17:26.123Z,25.80
2018-06-10T16:19:54.110Z,25.60
2018-06-10T16:22:22.118Z,25.50
2018-06-10T16:24:50.105Z,25.50
2018-06-10T16:27:18.214Z,25.60
2018-06-10T16:29:46.223Z,25.70
2018-06-10T16:32:14.254Z,25.70
2018-06-10T16:34:42.316Z,25.80
2018-06-10T16:37:10.355Z,26.10
2018-06-10T16:39:38.389Z,26.40
2018-06-10T16:42:06.406Z,26.60
2018-06-10T16:44:34.411Z,26.70
2018-06-10T16:47:02.500Z,26.80
2018-06-10T16:49:30.531Z,26.80
2018-06-10T16:51:58.543Z,26.80
2018-06-10T16:54:26.546Z,26.60
2018-06-10T16:56:54.630Z,26.40
2018-06-10T16:59:22.661Z,26.10
2018-06-10T17:01:50.676Z,25.90
2018-06-10T17:04:18.700Z,25.70
2018-06-10T17:06:46.746Z,25.60
2018-06-10T17:09:14.791Z,25.40
2018-06-10T17:11:42.812Z,25.20
2018-06-10T17:14:10.852Z,25.00
2018-06-10T17:16:38.867Z,24.90
2018-06-10T17:19:06.878Z,24.90
2018-06-10T17:21:34.900Z,25.00
2018-06-10T17:24:02.962Z,25.10
2018-06-10T17:26:31.012Z,25.20
2018-06-10T17:28:59.030Z,25.10
2018-06-10T17:31:27.052Z,25.10
2018-06-10T17:33:55.040Z,24.90
2018-06-10T17:36:23.042Z,24.70
2018-06-10T17:38:51.093Z,24.60
2018-06-10T17:41:19.114Z,24.50
2018-06-10T17:43:47.128Z,24.40
2018-06-10T17:46:15.203Z,24.40
2018-06-10T17:48:43.268Z,24.50
2018-06-10T17:51:11.249Z,24.60
2018-06-10T17:53:39.439Z,24.80
2018-06-10T17:56:07.420Z,25.00
2018-06-10T17:58:35.431Z,25.20
2018-06-10T18:01:03.451Z,25.30
2018-06-10T18:03:31.494Z,25.20
2018-06-10T18:05:59.916Z,25.10
2018-06-10T18:08:27.907Z,25.10
2018-06-10T18:10:55.922Z,25.10
2018-06-10T18:13:25.235Z,25.20
2018-06-10T18:15:53.266Z,25.30
2018-06-10T18:18:21.274Z,25.30
2018-06-10T18:20:49.326Z,25.20
2018-06-10T18:23:17.359Z,25.30
2018-06-10T18:25:45.366Z,25.30
2018-06-10T18:28:13.368Z,25.30
2018-06-10T18:30:41.382Z,25.30
2018-06-10T18:33:09.484Z,25.30
2018-06-10T18:38:05.432Z,25.30
2018-06-10T18:40:33.506Z,25.20
2018-06-10T18:43:01.696Z,24.80
2018-06-10T18:45:29.770Z,24.80
2018-06-10T18:47:57.772Z,24.70
2018-06-10T18:50:25.795Z,24.60
2018-06-10T18:52:53.830Z,24.50
2018-06-10T18:55:21.826Z,24.40
2018-06-10T18:57:49.842Z,24.30
2018-06-10T19:00:17.884Z,24.20
2018-06-10T19:02:45.897Z,24.10
2018-06-10T19:05:13.970Z,24.00
2018-06-10T19:07:42.004Z,24.00
2018-06-10T19:10:10.127Z,24.00
2018-06-10T19:12:38.135Z,23.90
2018-06-10T19:15:06.256Z,24.00
2018-06-10T19:17:34.284Z,23.90
2018-06-10T19:20:02.288Z,23.80
2018-06-10T19:22:30.312Z,23.90
2018-06-10T19:24:58.302Z,23.80
2018-06-10T19:27:26.302Z,23.80
2018-06-10T19:29:54.362Z,23.70
2018-06-10T19:32:22.455Z,23.50
2018-06-10T19:37:18.353Z,23.50
2018-06-10T19:39:46.359Z,23.70
2018-06-10T19:42:14.407Z,23.70
2018-06-10T19:44:42.412Z,23.80
2018-06-10T19:47:10.442Z,23.80
2018-06-10T19:49:38.494Z,23.70
2018-06-10T19:52:06.492Z,23.70
2018-06-10T19:54:34.639Z,23.70
2018-06-10T19:57:02.647Z,23.70
2018-06-10T19:59:30.719Z,23.70
2018-06-10T20:01:58.722Z,23.70
2018-06-10T20:04:26.735Z,23.60
2018-06-10T20:06:54.760Z,23.40
2018-06-10T20:09:22.780Z,23.30
2018-06-10T20:11:50.778Z,23.10
2018-06-10T20:14:18.789Z,23.00
2018-06-10T20:16:46.804Z,22.90
2018-06-10T20:19:14.827Z,22.90
2018-06-10T20:21:42.818Z,22.90
2018-06-10T20:24:10.840Z,22.90
2018-06-10T20:26:38.887Z,22.80
2018-06-10T20:29:06.884Z,22.70
2018-06-10T20:31:34.883Z,22.70
2018-06-10T20:34:02.879Z,22.60
2018-06-10T20:36:30.889Z,22.50
2018-06-10T20:38:58.893Z,22.50
2018-06-10T20:41:26.914Z,22.40
2018-06-10T20:43:54.913Z,22.40
2018-06-10T20:46:22.954Z,22.40
2018-06-10T20:48:50.983Z,22.30
2018-06-10T20:51:19.051Z,22.40
2018-06-10T20:53:47.038Z,22.30
2018-06-10T20:56:15.110Z,22.40
2018-06-10T20:58:43.162Z,22.30
2018-06-10T21:01:11.261Z,22.30
2018-06-10T21:03:39.311Z,22.30
2018-06-10T21:06:07.388Z,22.30
2018-06-10T21:08:35.383Z,22.30
2018-06-10T21:11:03.401Z,22.20
2018-06-10T21:13:31.502Z,22.20
2018-06-10T21:15:59.501Z,22.10
2018-06-10T21:20:55.412Z,22.00
2018-06-10T21:23:23.487Z,22.00
2018-06-10T21:25:51.556Z,21.90
2018-06-10T21:28:19.676Z,21.80
2018-06-10T21:30:47.662Z,21.80
2018-06-10T21:33:15.664Z,21.70
2018-06-10T21:35:43.667Z,21.60
2018-06-10T21:38:11.676Z,21.60
2018-06-10T21:40:39.711Z,21.60
2018-06-10T21:43:07.720Z,21.60
2018-06-10T21:45:35.741Z,21.50
2018-06-10T21:48:03.764Z,21.50
2018-06-10T21:50:31.843Z,21.50
2018-06-10T21:52:59.846Z,21.50
2018-06-10T21:55:27.853Z,21.50
2018-06-10T21:57:55.864Z,21.40
2018-06-10T22:00:24.963Z,21.40
2018-06-10T22:02:53.126Z,21.40
2018-06-10T22:05:21.290Z,21.40
2018-06-10T22:07:49.286Z,21.30
2018-06-10T22:12:45.194Z,21.20
2018-06-10T22:15:13.186Z,21.20
2018-06-10T22:17:41.243Z,21.10
2018-06-10T22:20:09.244Z,21.10
2018-06-10T22:22:37.271Z,21.10
2018-06-10T22:25:05.356Z,21.00
2018-06-10T22:27:33.360Z,20.90
2018-06-10T22:30:01.397Z,20.90
2018-06-10T22:32:29.396Z,21.00
2018-06-10T22:34:57.401Z,20.90
2018-06-10T22:37:25.415Z,20.80
2018-06-10T22:39:53.405Z,20.80
2018-06-10T22:42:21.460Z,20.80
2018-06-10T22:47:17.312Z,20.80
2018-06-10T22:49:45.295Z,20.80
2018-06-10T22:52:13.328Z,20.80
2018-06-10T22:54:44.255Z,20.80
2018-06-10T22:57:12.324Z,20.80
2018-06-10T22:59:40.322Z,20.80
2018-06-10T23:02:09.132Z,20.80
2018-06-10T23:04:37.133Z,20.70
2018-06-10T23:07:05.253Z,20.70
2018-06-10T23:09:33.202Z,20.70
2018-06-10T23:12:01.198Z,20.70
2018-06-10T23:14:29.210Z,20.70
2018-06-10T23:16:57.218Z,20.70
2018-06-10T23:19:26.291Z,20.70
2018-06-10T23:24:22.186Z,20.50
2018-06-10T23:26:50.221Z,20.50
2018-06-10T23:29:18.278Z,20.50
2018-06-10T23:31:46.275Z,20.50
2018-06-10T23:34:14.291Z,20.50
2018-06-10T23:36:42.346Z,20.40
2018-06-10T23:39:10.383Z,20.30
2018-06-10T23:41:38.482Z,20.30
2018-06-10T23:44:06.575Z,20.30
2018-06-10T23:46:34.575Z,20.40
2018-06-10T23:49:02.636Z,20.30
2018-06-10T23:51:30.682Z,20.30
2018-06-10T23:53:58.720Z,20.30
2018-06-10T23:56:26.744Z,20.30
2018-06-10T23:58:54.961Z,20.20
